Time;durP1;ratioP1;P1;durP2;ratioP2;P2;SDS_P1;SDS_P2;PMS_P1;PMS_P2;Temp;Humidity;BMP_temperature;BMP_pressure;BME280_temperature;BME280_humidity;BME280_pressure;Samples;Min_cycle;Max_cycle;Signal;HPM_P1;HPM_P2
2023/05/13 03:29:04;;;;;;;;;;;;;;;;;;;;;
2023/05/13 08:48:01;;;;;;;;;;;;;;;;;;;;;
2023/05/13 09:05:38;;;;;;;10.40;6.05;;;17.20;66.70;;;;;;5866809;24;20071;-92
2023/05/13 09:44:37;;;;;;;9.10;5.75;;;17.80;65.30;;;;;;5920178;24;20103;-94
2023/05/13 09:48:30;;;;;;;9.60;5.72;;;17.90;65.10;;;;;;5878136;24;20060;-96
2023/05/13 09:58:22;;;;;;;10.50;6.35;;;18.00;64.40;;;;;;5915351;24;20068;-92
2023/05/13 10:05:17;;;;;;;;;;;;;;;;;;;;;
2023/05/13 10:16:32;;;;;;;;;;;;;;;;;;;;;
2023/05/13 10:23:23;;;;;;;12.63;7.00;;;18.30;65.50;;;;;;5914800;24;20442;-96
2023/05/13 10:38:55;;;;;;;;;;;;;;;;;;;;;
2023/05/13 10:56:06;;;;;;;;;;;;;;;;;;;;;
2023/05/13 11:45:52;;;;;;;13.98;8.10;;;18.80;65.10;;;;;;6060765;23;20267;-96
2023/05/13 12:32:18;;;;;;;;;;;;;;;;;;;;;
2023/05/13 12:47:22;;;;;;;;;;;;;;;;;;;;;
2023/05/13 12:58:50;;;;;;;;;;;;;;;;;;;;;
2023/05/13 14:16:15;;;;;;;10.98;4.55;;;19.70;61.60;;;;;;6244880;22;20031;-92
2023/05/13 14:18:42;;;;;;;8.27;4.30;;;19.70;61.10;;;;;;6184530;22;20835;-88
2023/05/13 14:21:07;;;;;;;13.05;4.85;;;19.70;61.50;;;;;;6217723;22;20758;-87
2023/05/13 14:23:33;;;;;;;8.20;5.03;;;19.70;61.40;;;;;;6239512;22;20039;-90
2023/05/13 14:25:59;;;;;;;9.10;5.32;;;19.70;61.50;;;;;;6168511;22;20018;-93
2023/05/13 14:28:25;;;;;;;10.00;5.88;;;19.70;61.60;;;;;;6206694;22;20023;-88
2023/05/13 14:30:53;;;;;;;8.60;5.78;;;19.60;62.20;;;;;;6217315;22;20039;-91
2023/05/13 14:33:19;;;;;;;11.15;6.00;;;19.70;62.00;;;;;;6214322;22;20833;-91
2023/05/13 14:35:53;;;;;;;7.85;5.47;;;19.60;62.10;;;;;;6218779;22;20051;-92
2023/05/13 14:38:25;;;;;;;8.88;5.45;;;19.70;62.00;;;;;;6204810;22;20023;-90
2023/05/13 14:40:54;;;;;;;7.13;4.65;;;19.70;62.00;;;;;;6192682;22;20020;-89
2023/05/13 14:43:21;;;;;;;5.43;4.20;;;19.70;61.40;;;;;;6191144;22;20627;-90
2023/05/13 14:45:47;;;;;;;6.72;4.15;;;19.70;61.10;;;;;;6192745;22;20119;-89
2023/05/13 14:48:13;;;;;;;10.43;5.00;;;19.70;60.80;;;;;;6185065;22;20035;-89
2023/05/13 14:50:39;;;;;;;10.93;5.07;;;19.70;60.50;;;;;;6215626;22;20011;-90
2023/05/13 14:53:05;;;;;;;10.02;4.68;;;19.60;60.60;;;;;;6160665;23;20017;-92
2023/05/13 14:55:33;;;;;;;10.63;5.43;;;19.60;60.50;;;;;;6212411;23;20016;-92
2023/05/13 14:58:12;;;;;;;7.80;5.13;;;19.60;60.30;;;;;;6207816;23;20024;-91
2023/05/13 15:00:45;;;;;;;12.90;6.05;;;19.50;61.00;;;;;;6189095;23;20020;-88
2023/05/13 15:03:11;;;;;;;9.40;5.82;;;19.60;61.60;;;;;;6181389;23;20024;-89
2023/05/13 15:05:44;;;;;;;10.73;6.13;;;19.70;62.00;;;;;;6187540;23;20074;-91
2023/05/13 15:08:10;;;;;;;10.20;5.85;;;19.70;62.00;;;;;;6191603;22;20558;-89
2023/05/13 15:10:43;;;;;;;11.38;5.88;;;19.70;62.00;;;;;;6216184;22;20098;-91
2023/05/13 15:13:09;;;;;;;10.48;5.22;;;19.60;61.30;;;;;;6213892;22;20020;-90
2023/05/13 15:15:37;;;;;;;11.93;5.35;;;19.50;61.40;;;;;;6217642;22;20020;-88
2023/05/13 15:18:10;;;;;;;10.18;5.43;;;19.50;60.70;;;;;;6203097;22;20077;-91
2023/05/13 15:20:39;;;;;;;10.07;5.10;;;19.40;60.60;;;;;;6217515;22;20050;-91
2023/05/13 15:23:04;;;;;;;9.05;5.22;;;19.40;60.50;;;;;;6215520;22;20019;-89
2023/05/13 15:25:30;;;;;;;7.93;5.47;;;19.30;60.60;;;;;;6239704;22;20027;-86
2023/05/13 15:27:56;;;;;;;11.10;5.22;;;19.30;60.70;;;;;;6151870;23;20020;-88
2023/05/13 15:30:24;;;;;;;7.13;5.10;;;19.40;60.90;;;;;;6185109;23;20020;-90
2023/05/13 15:32:53;;;;;;;7.72;4.90;;;19.50;60.90;;;;;;6183732;23;20023;-92
2023/05/13 15:35:22;;;;;;;13.20;5.07;;;19.50;60.80;;;;;;6187150;23;20020;-92
2023/05/13 15:37:48;;;;;;;10.10;5.20;;;19.50;60.40;;;;;;6178769;23;20458;-89
2023/05/13 15:40:13;;;;;;;8.02;5.05;;;19.50;60.30;;;;;;6186425;23;20020;-86
2023/05/13 15:42:43;;;;;;;9.85;4.97;;;19.50;59.90;;;;;;6172783;23;20020;-92
2023/05/13 15:45:19;;;;;;;7.45;5.07;;;19.40;59.30;;;;;;6161451;23;20266;-94
2023/05/13 15:47:54;;;;;;;10.80;6.13;;;19.30;59.40;;;;;;6160030;23;20024;-91
2023/05/13 15:50:20;;;;;;;10.55;5.28;;;19.30;60.10;;;;;;6187430;23;20024;-90
2023/05/13 15:52:48;;;;;;;11.43;5.43;;;19.30;60.40;;;;;;6185306;23;20031;-91
2023/05/13 15:55:36;;;;;;;12.48;5.00;;;19.30;60.50;;;;;;6210516;23;20525;-89
2023/05/13 15:58:02;;;;;;;6.93;5.15;;;19.30;60.50;;;;;;6175409;23;20051;-88
2023/05/13 16:00:27;;;;;;;10.68;5.60;;;19.30;60.50;;;;;;6183934;23;20620;-91
2023/05/13 16:02:59;;;;;;;11.00;6.18;;;19.20;60.50;;;;;;6159107;23;20020;-89
2023/05/13 16:05:27;;;;;;;16.30;7.07;;;19.20;60.90;;;;;;6186794;23;20016;-90
2023/05/13 16:07:56;;;;;;;14.85;6.93;;;19.20;61.40;;;;;;6154702;23;20027;-91
2023/05/13 16:10:40;;;;;;;7.47;6.13;;;19.00;61.60;;;;;;6200930;23;20022;-91
2023/05/13 16:13:15;;;;;;;11.43;7.32;;;18.90;61.60;;;;;;6166854;22;20031;-90
2023/05/13 16:15:48;;;;;;;11.63;7.35;;;18.70;61.80;;;;;;6228272;22;20023;-91
2023/05/13 16:18:20;;;;;;;11.38;7.45;;;18.70;62.30;;;;;;6177589;23;20020;-89
2023/05/13 16:20:50;;;;;;;12.18;8.05;;;18.60;62.20;;;;;;6211099;23;20020;-89
2023/05/13 16:23:28;;;;;;;14.48;7.47;;;18.50;62.60;;;;;;6215453;23;20561;-92
2023/05/13 16:25:58;;;;;;;15.25;8.32;;;18.50;62.50;;;;;;6156916;23;20039;-88
2023/05/13 16:28:24;;;;;;;16.73;8.60;;;18.40;62.60;;;;;;6202097;23;20020;-90
2023/05/13 16:30:50;;;;;;;10.68;8.32;;;18.30;62.90;;;;;;6212059;23;20016;-91
2023/05/13 16:33:35;;;;;;;16.23;9.13;;;18.30;62.80;;;;;;6187600;23;20036;-92
2023/05/13 16:39:15;;;;;;;10.52;7.68;;;18.10;62.70;;;;;;6221750;23;20024;-90
2023/05/13 16:41:43;;;;;;;12.65;8.20;;;18.00;63.00;;;;;;6212829;23;20039;-88
2023/05/13 16:44:12;;;;;;;12.30;8.75;;;17.90;63.20;;;;;;6159114;23;20027;-88
2023/05/13 16:46:38;;;;;;;12.23;8.98;;;17.80;63.30;;;;;;6207359;23;20466;-90
2023/05/13 16:49:07;;;;;;;16.42;10.05;;;17.80;63.50;;;;;;6182712;23;20070;-94
2023/05/13 16:52:05;;;;;;;16.35;8.75;;;17.70;63.70;;;;;;6212676;23;20039;-95
2023/05/13 16:55:54;;;;;;;10.65;9.40;;;17.50;63.40;;;;;;6182202;23;20345;-95
2023/05/13 16:58:25;;;;;;;11.23;9.13;;;17.30;64.10;;;;;;6104789;23;20335;-92
2023/05/13 17:01:09;;;;;;;14.00;8.90;;;17.10;64.20;;;;;;6214533;23;20024;-92
2023/05/13 17:03:35;;;;;;;16.58;9.75;;;17.00;64.20;;;;;;6190130;22;20019;-91
2023/05/13 17:06:13;;;;;;;13.55;10.55;;;16.80;64.40;;;;;;6214425;23;20031;-91
2023/05/13 17:08:42;;;;;;;16.25;10.75;;;16.80;64.90;;;;;;6208306;23;20450;-91
2023/05/13 17:11:15;;;;;;;19.20;10.63;;;16.70;65.20;;;;;;6239307;23;20016;-93
2023/05/13 17:13:56;;;;;;;17.50;10.77;;;16.70;65.50;;;;;;6205930;22;20023;-92
2023/05/13 17:16:34;;;;;;;;;;;;;;;;;;;;;
2023/05/13 17:19:09;;;;;;;17.50;11.85;;;16.50;66.10;;;;;;6213163;23;20020;-91
2023/05/13 17:21:38;;;;;;;18.27;11.52;;;16.40;66.40;;;;;;6215189;23;20230;-91
2023/05/13 17:24:09;;;;;;;20.40;12.15;;;16.10;66.70;;;;;;6199044;23;20024;-90
2023/05/13 17:26:47;;;;;;;16.45;11.98;;;16.00;67.20;;;;;;6211476;23;20016;-91
2023/05/13 17:29:24;;;;;;;18.67;12.23;;;15.80;67.70;;;;;;6211657;23;20012;-91
2023/05/13 17:32:04;;;;;;;18.88;10.65;;;15.60;67.90;;;;;;6189912;23;20303;-92
2023/05/13 17:34:40;;;;;;;16.98;9.38;;;15.50;68.20;;;;;;6170632;23;20020;-93
2023/05/13 17:37:19;;;;;;;18.23;10.25;;;15.40;68.10;;;;;;6209238;23;20804;-91
2023/05/13 17:39:45;;;;;;;15.23;10.50;;;15.20;68.60;;;;;;6213070;23;20024;-89
2023/05/13 17:42:11;;;;;;;17.05;10.35;;;15.00;68.70;;;;;;6187405;22;20016;-89
2023/05/13 17:44:37;;;;;;;17.85;10.90;;;14.90;68.90;;;;;;6186492;23;20099;-90
2023/05/13 17:47:03;;;;;;;19.02;11.18;;;14.80;69.00;;;;;;6180391;22;20080;-86
2023/05/13 17:49:35;;;;;;;21.88;11.27;;;14.70;69.10;;;;;;6190909;23;20108;-93
2023/05/13 17:52:07;;;;;;;18.08;11.98;;;14.60;69.40;;;;;;6188399;23;20035;-93
2023/05/13 17:54:33;;;;;;;23.05;13.32;;;14.50;69.60;;;;;;6164541;23;20016;-91
2023/05/13 17:56:58;;;;;;;19.83;12.43;;;14.40;69.80;;;;;;6205202;23;20023;-89
2023/05/13 17:59:27;;;;;;;20.95;12.55;;;14.30;70.20;;;;;;6186007;23;20027;-88
2023/05/13 18:01:52;;;;;;;21.17;13.60;;;14.20;70.50;;;;;;6213356;23;20431;-89
2023/05/13 18:04:21;;;;;;;28.60;14.30;;;14.00;70.60;;;;;;6196900;22;20023;-91
2023/05/13 18:06:50;;;;;;;22.70;14.73;;;14.00;71.00;;;;;;6204408;23;20012;-91
2023/05/13 18:09:18;;;;;;;22.05;13.50;;;13.90;71.00;;;;;;6198574;22;20016;-91
2023/05/13 18:42:49;;;;;;;23.30;13.43;;;13.10;72.30;;;;;;6085658;23;20052;-90
2023/05/13 18:45:49;;;;;;;20.17;12.82;;;13.10;72.20;;;;;;6083530;23;20024;-91
2023/05/13 18:48:18;;;;;;;20.10;11.43;;;13.10;72.40;;;;;;6155848;23;20020;-90
2023/05/13 18:51:37;;;;;;;19.83;10.60;;;13.00;72.10;;;;;;6213313;23;20023;-91
2023/05/13 18:54:09;;;;;;;17.38;9.70;;;13.00;72.00;;;;;;6142437;23;20025;-91
2023/05/13 18:56:38;;;;;;;13.45;9.48;;;12.90;71.60;;;;;;6195801;23;20215;-89
2023/05/13 18:59:15;;;;;;;14.85;9.63;;;12.80;71.50;;;;;;6186289;22;20089;-89
2023/05/13 19:01:47;;;;;;;19.38;9.85;;;12.80;71.40;;;;;;6212810;23;20027;-88
2023/05/13 19:04:16;;;;;;;15.70;9.18;;;12.70;71.30;;;;;;6199310;22;20198;-89
2023/05/13 19:06:54;;;;;;;21.98;9.80;;;12.60;71.10;;;;;;6229931;23;20107;-89
2023/05/13 19:09:34;;;;;;;18.05;9.68;;;12.50;71.20;;;;;;6235553;23;20044;-90
2023/05/13 19:12:06;;;;;;;16.50;9.25;;;12.50;71.20;;;;;;6188881;22;20020;-90
2023/05/13 19:14:32;;;;;;;15.43;9.95;;;12.50;71.10;;;;;;6211945;23;20034;-91
2023/05/13 19:17:18;;;;;;;14.88;10.15;;;12.50;71.20;;;;;;6178841;23;20381;-89
2023/05/13 19:19:55;;;;;;;18.55;9.88;;;12.40;71.20;;;;;;6173849;23;20024;-89
2023/05/13 19:22:32;;;;;;;16.48;9.90;;;12.30;71.20;;;;;;6196308;22;20104;-93
2023/05/13 19:25:04;;;;;;;14.63;9.50;;;12.30;71.30;;;;;;6210842;22;20517;-89
2023/05/13 19:27:33;;;;;;;21.17;9.77;;;12.30;71.40;;;;;;6216034;22;20037;-90
2023/05/13 19:30:06;;;;;;;15.30;8.85;;;12.20;71.30;;;;;;6248995;22;20026;-92
2023/05/13 19:32:34;;;;;;;15.98;8.75;;;12.20;71.30;;;;;;6220817;22;20024;-90
2023/05/13 19:35:06;;;;;;;14.98;8.68;;;12.10;71.30;;;;;;6228266;22;20026;-91
2023/05/13 19:37:42;;;;;;;15.32;9.40;;;12.10;71.50;;;;;;6239691;22;20015;-90
2023/05/13 19:40:32;;;;;;;14.07;9.68;;;12.10;71.60;;;;;;6248476;22;20019;-90
2023/05/13 19:43:11;;;;;;;15.68;9.68;;;12.00;71.60;;;;;;6249863;22;20027;-90
2023/05/13 19:45:37;;;;;;;14.88;10.30;;;12.00;71.70;;;;;;6223576;22;20676;-89
2023/05/13 19:48:03;;;;;;;19.65;9.60;;;11.90;71.80;;;;;;6240259;22;20019;-89
2023/05/13 19:50:35;;;;;;;19.90;11.13;;;11.90;71.80;;;;;;6223239;22;20016;-89
2023/05/13 19:53:12;;;;;;;20.83;10.88;;;11.90;72.00;;;;;;6217400;22;20032;-89
2023/05/13 19:55:51;;;;;;;17.95;10.75;;;11.90;72.00;;;;;;6222737;22;20090;-91
2023/05/13 19:58:29;;;;;;;22.27;10.82;;;11.80;72.40;;;;;;6191382;22;20023;-89
2023/05/13 20:01:06;;;;;;;18.77;10.65;;;11.70;72.40;;;;;;6248167;22;20102;-90
2023/05/13 20:03:44;;;;;;;;;;;;;;;;;;;;;
2023/05/13 20:06:18;;;;;;;19.25;11.50;;;11.70;72.50;;;;;;6271881;22;20077;-91
2023/05/13 20:08:54;;;;;;;19.67;11.15;;;11.70;72.50;;;;;;6219404;22;20022;-89
2023/05/13 20:11:21;;;;;;;19.25;11.27;;;11.60;72.60;;;;;;6222673;22;20015;-91
2023/05/13 20:14:03;;;;;;;;;;;;;;;;;;;;;
2023/05/13 20:16:38;;;;;;;20.73;11.43;;;11.50;72.70;;;;;;6268739;22;20023;-89
2023/05/13 20:19:07;;;;;;;16.73;11.23;;;11.50;72.90;;;;;;6216559;22;20027;-91
2023/05/13 20:21:38;;;;;;;22.58;11.55;;;11.50;72.80;;;;;;6223364;22;20031;-90
2023/05/13 20:24:07;;;;;;;19.85;11.82;;;11.50;72.80;;;;;;6234223;22;20023;-90
2023/05/13 20:26:35;;;;;;;21.77;12.98;;;11.40;72.90;;;;;;6219187;22;20069;-91
2023/05/13 20:29:11;;;;;;;23.43;14.17;;;11.40;73.00;;;;;;6207604;23;20524;-90
2023/05/13 20:31:46;;;;;;;24.33;15.23;;;11.30;73.30;;;;;;6213231;23;20110;-90
2023/05/13 20:34:21;;;;;;;24.67;16.10;;;11.30;73.50;;;;;;6213078;23;20039;-90
2023/05/13 20:36:52;;;;;;;23.52;15.50;;;11.30;73.70;;;;;;6209348;23;20074;-92
2023/05/13 20:39:22;;;;;;;29.52;15.70;;;11.20;73.70;;;;;;6215284;23;20406;-90
2023/05/13 20:42:21;;;;;;;25.63;15.87;;;11.10;74.00;;;;;;6212720;23;20016;-90
2023/05/13 20:44:47;;;;;;;27.88;15.90;;;11.10;74.10;;;;;;6166967;23;20344;-92
2023/05/13 20:47:22;;;;;;;25.17;15.32;;;11.10;74.30;;;;;;6206355;22;20077;-90
2023/05/13 20:50:00;;;;;;;;;;;;;;;;;;;;;
2023/05/13 20:53:14;;;;;;;25.25;15.57;;;11.00;74.50;;;;;;6193800;23;20017;-94
2023/05/13 20:55:53;;;;;;;26.37;14.73;;;11.00;74.90;;;;;;6163377;23;20035;-91
2023/05/13 20:58:21;;;;;;;23.95;14.80;;;11.00;74.70;;;;;;6128708;23;20035;-96
2023/05/13 21:01:32;;;;;;;27.70;15.30;;;10.90;74.70;;;;;;6108576;23;20020;-92
2023/05/13 21:07:12;;;;;;;25.50;14.95;;;10.90;74.90;;;;;;6200003;23;20107;-93
2023/05/13 21:10:16;;;;;;;;;;;;;;;;;;;;;
2023/05/13 21:14:06;;;;;;;23.95;15.45;;;10.80;75.20;;;;;;6140205;23;20065;-91
2023/05/13 21:17:06;;;;;;;;;;;;;;;;;;;;;
2023/05/13 21:19:50;;;;;;;25.27;14.87;;;10.70;75.70;;;;;;6146909;23;20442;-91
2023/05/13 21:22:28;;;;;;;25.30;14.50;;;10.70;75.40;;;;;;6196631;22;20021;-93
2023/05/13 21:25:38;;;;;;;21.53;14.53;;;10.70;75.50;;;;;;6187141;22;20020;-93
2023/05/13 21:28:36;;;;;;;21.47;14.57;;;10.70;75.90;;;;;;6191935;23;20044;-92
2023/05/13 21:31:18;;;;;;;21.77;14.57;;;10.70;76.00;;;;;;6196977;23;20023;-92
2023/05/13 21:34:05;;;;;;;21.67;15.73;;;10.70;76.00;;;;;;6142508;23;20024;-94
2023/05/13 21:37:02;;;;;;;23.70;14.80;;;10.60;76.10;;;;;;6153175;23;20044;-93
2023/05/13 21:39:40;;;;;;;31.33;15.47;;;10.70;76.20;;;;;;6150639;23;20447;-92
2023/05/13 21:45:28;;;;;;;;;;;10.60;76.00;;;;;;6142117;23;20072;-91
2023/05/13 21:48:39;;;;;;;27.63;16.07;;;10.60;76.50;;;;;;6088486;23;19920;-91
2023/05/13 21:51:24;;;;;;;;;;;;;;;;;;;;;
2023/05/13 21:54:37;;;;;;;22.93;15.20;;;10.60;76.00;;;;;;6122191;23;20021;-93
2023/05/13 21:57:10;;;;;;;22.67;15.53;;;10.60;76.20;;;;;;6033588;23;20014;-91
2023/05/13 22:00:28;;;;;;;24.20;16.50;;;10.60;75.80;;;;;;6093520;23;20553;-91
2023/05/13 22:06:58;;;;;;;27.60;16.93;;;10.60;76.00;;;;;;6191830;23;20035;-94
2023/05/13 22:09:40;;;;;;;26.35;17.63;;;10.60;76.20;;;;;;6121326;23;20013;-92
2023/05/13 22:12:17;;;;;;;30.60;18.70;;;10.60;76.10;;;;;;6129141;22;20027;-91
2023/05/13 22:17:32;;;;;;;29.37;17.90;;;10.60;76.10;;;;;;6199346;23;20063;-91
2023/05/13 22:20:06;;;;;;;33.23;20.23;;;10.50;76.10;;;;;;6174202;23;20458;-90
2023/05/13 22:22:54;;;;;;;31.00;19.93;;;10.50;76.20;;;;;;6172737;23;20064;-91
2023/05/13 22:25:30;;;;;;;29.77;19.53;;;10.50;76.30;;;;;;6176038;22;20012;-91
2023/05/13 22:28:18;;;;;;;;;;;;;;;;;;;;;
2023/05/13 22:34:23;;;;;;;;;;;;;;;;;;;;;
2023/05/13 22:37:08;;;;;;;29.03;19.73;;;10.40;76.30;;;;;;6269355;22;20047;-91
2023/05/13 22:40:16;;;;;;;28.43;18.87;;;10.40;76.40;;;;;;6262230;22;20078;-91
2023/05/13 22:45:43;;;;;;;27.73;17.87;;;10.30;76.50;;;;;;6274504;22;20098;-89
2023/05/13 22:48:20;;;;;;;;;;;10.30;76.50;;;;;;6225698;22;20532;-92
2023/05/13 22:51:09;;;;;;;30.53;18.53;;;10.30;76.90;;;;;;6249580;22;19925;-93
2023/05/13 22:54:31;;;;;;;;;;;;;;;;;;;;;
2023/05/13 22:57:22;;;;;;;26.05;14.70;;;10.30;76.60;;;;;;6203260;22;20016;-92
2023/05/13 23:00:15;;;;;;;17.02;11.15;;;10.30;76.80;;;;;;6131429;22;20064;-92
2023/05/13 23:02:50;;;;;;;25.93;15.13;;;10.30;76.90;;;;;;6214055;22;20057;-91
2023/05/13 23:05:29;;;;;;;26.03;15.37;;;10.40;76.60;;;;;;6277023;22;20322;-91
2023/05/13 23:08:29;;;;;;;25.57;14.17;;;10.40;76.60;;;;;;6222440;22;20020;-91
2023/05/13 23:10:58;;;;;;;24.47;13.50;;;10.40;76.70;;;;;;6205002;22;20070;-91
2023/05/13 23:13:33;;;;;;;22.23;13.37;;;10.40;76.50;;;;;;6206479;22;20125;-91
2023/05/13 23:16:37;;;;;;;22.17;13.20;;;10.40;76.60;;;;;;6248227;22;20019;-91
2023/05/13 23:19:10;;;;;;;21.85;13.45;;;10.40;77.00;;;;;;6081599;23;20093;-90
2023/05/13 23:21:39;;;;;;;27.23;13.20;;;10.40;76.70;;;;;;6225575;22;20045;-90
2023/05/13 23:27:36;;;;;;;24.90;12.90;;;10.30;76.80;;;;;;6203411;22;20016;-90
2023/05/13 23:30:02;;;;;;;21.70;13.53;;;10.30;76.80;;;;;;6212153;23;20078;-90
2023/05/13 23:32:34;;;;;;;22.00;14.20;;;10.30;76.80;;;;;;6176443;22;20096;-90
2023/05/13 23:35:12;;;;;;;;;;;10.30;77.00;;;;;;6188658;23;20020;-92
2023/05/13 23:41:21;;;;;;;25.43;14.07;;;10.20;77.40;;;;;;6100172;23;20100;-90
2023/05/13 23:47:18;;;;;;;26.43;14.10;;;10.30;77.20;;;;;;6102249;23;20061;-92
2023/05/13 23:49:50;;;;;;;25.07;13.43;;;10.30;77.40;;;;;;5933691;23;20130;-90
2023/05/13 23:52:51;;;;;;;24.87;14.67;;;10.30;77.20;;;;;;6186441;22;20047;-91
2023/05/13 23:55:37;;;;;;;28.60;15.00;;;10.30;77.60;;;;;;6191064;23;20024;-92
2023/05/13 23:58:05;;;;;;;24.53;14.50;;;10.30;77.40;;;;;;6178552;23;20028;-92
